Time;durP1;ratioP1;P1;durP2;ratioP2;P2;SDS_P1;SDS_P2;PMS_P1;PMS_P2;Temp;Humidity;BMP_temperature;BMP_pressure;BME280_temperature;BME280_humidity;BME280_pressure;Samples;Min_cycle;Max_cycle;Signal;HPM_P1;HPM_P2
2023/09/28 00:02:50;;;;;;;10.88;6.18;;;17.20;99.90;;;;;;4975229;29;20043;-92
2023/09/28 00:05:19;;;;;;;9.02;5.63;;;17.20;99.90;;;;;;4959503;29;20432;-92
2023/09/28 00:07:47;;;;;;;8.05;5.78;;;17.30;99.90;;;;;;4946543;29;20043;-92
2023/09/28 00:10:16;;;;;;;8.75;5.60;;;17.30;99.90;;;;;;4950824;29;20044;-92
2023/09/28 00:12:49;;;;;;;9.57;6.22;;;17.30;99.90;;;;;;4970125;29;20048;-92
2023/09/28 00:15:16;;;;;;;9.90;6.03;;;17.40;99.90;;;;;;4959128;29;20041;-92
2023/09/28 00:17:47;;;;;;;9.57;5.70;;;17.40;99.90;;;;;;4954748;29;20060;-92
2023/09/28 00:20:19;;;;;;;7.53;5.88;;;17.30;99.90;;;;;;4950778;29;20039;-92
2023/09/28 00:22:51;;;;;;;8.50;5.55;;;17.30;99.90;;;;;;4956469;29;20058;-91
2023/09/28 00:25:19;;;;;;;8.13;5.78;;;17.30;99.90;;;;;;4955775;29;20043;-90
2023/09/28 00:27:48;;;;;;;9.20;6.38;;;17.30;99.90;;;;;;4958894;29;20043;-92
2023/09/28 00:30:21;;;;;;;11.25;6.45;;;17.30;99.90;;;;;;4955261;29;20102;-92
2023/09/28 00:32:53;;;;;;;9.13;6.63;;;17.30;99.90;;;;;;4950338;29;20805;-91
2023/09/28 00:35:20;;;;;;;9.38;6.63;;;17.30;99.90;;;;;;4958366;29;20055;-92
2023/09/28 00:37:51;;;;;;;9.05;6.50;;;17.30;99.90;;;;;;4958414;29;20162;-92
2023/09/28 00:40:19;;;;;;;8.73;6.45;;;17.30;99.90;;;;;;4958981;29;20070;-91
2023/09/28 00:42:47;;;;;;;10.85;6.72;;;17.40;99.90;;;;;;4955849;29;20058;-91
2023/09/28 00:45:14;;;;;;;11.93;6.22;;;17.40;99.90;;;;;;4965069;29;20178;-92
2023/09/28 00:47:41;;;;;;;11.77;6.53;;;17.40;99.90;;;;;;4958397;29;20047;-92
2023/09/28 00:50:14;;;;;;;9.43;6.72;;;17.40;99.90;;;;;;4948070;29;20036;-91
2023/09/28 00:52:43;;;;;;;9.43;6.68;;;17.40;99.90;;;;;;4969677;29;20046;-92
2023/09/28 00:55:11;;;;;;;9.90;6.43;;;17.40;99.90;;;;;;4951171;29;20094;-91
2023/09/28 00:57:39;;;;;;;11.00;6.57;;;17.40;99.90;;;;;;4958335;29;20054;-92
2023/09/28 01:00:18;;;;;;;8.77;6.22;;;17.30;99.90;;;;;;4958744;29;20047;-91
2023/09/28 01:02:50;;;;;;;9.57;6.65;;;17.30;99.90;;;;;;4958382;29;20101;-92
2023/09/28 01:05:22;;;;;;;8.60;6.25;;;17.30;99.90;;;;;;4958122;29;20066;-92
2023/09/28 01:07:49;;;;;;;10.35;7.05;;;17.30;99.90;;;;;;4957385;29;20039;-92
2023/09/28 01:10:23;;;;;;;10.25;6.78;;;17.30;99.90;;;;;;4957114;29;20098;-93
2023/09/28 01:12:55;;;;;;;8.15;6.38;;;17.30;99.90;;;;;;4959845;29;20444;-93
2023/09/28 01:15:22;;;;;;;9.10;5.50;;;17.30;99.90;;;;;;4951287;29;20067;-93
2023/09/28 01:17:49;;;;;;;8.60;6.10;;;17.30;99.90;;;;;;4964140;29;20106;-92
2023/09/28 01:20:18;;;;;;;9.18;6.43;;;17.30;99.90;;;;;;4958007;29;20476;-93
2023/09/28 01:22:48;;;;;;;8.70;5.97;;;17.30;99.90;;;;;;4953017;29;20050;-93
2023/09/28 01:25:16;;;;;;;8.93;6.28;;;17.30;99.90;;;;;;4944915;29;20075;-92
2023/09/28 01:27:45;;;;;;;9.13;6.50;;;17.20;99.90;;;;;;4957882;29;20039;-92
2023/09/28 01:30:13;;;;;;;10.80;6.43;;;17.30;99.90;;;;;;4952400;29;20036;-93
2023/09/28 01:32:42;;;;;;;10.40;6.78;;;17.40;99.90;;;;;;4966546;29;20531;-93
2023/09/28 01:35:11;;;;;;;9.30;6.70;;;17.30;99.90;;;;;;4957425;29;20039;-93
2023/09/28 01:38:15;;;;;;;10.63;6.20;;;17.30;99.90;;;;;;4945111;29;20047;-93
2023/09/28 01:40:42;;;;;;;9.48;6.25;;;17.20;99.90;;;;;;4957843;29;20054;-93
2023/09/28 01:43:10;;;;;;;9.63;6.25;;;17.20;99.90;;;;;;4957459;29;20043;-93
2023/09/28 01:45:37;;;;;;;9.35;6.05;;;17.20;99.90;;;;;;4945389;29;20460;-92
2023/09/28 01:48:04;;;;;;;9.50;6.05;;;17.20;99.90;;;;;;4957543;29;20035;-93
2023/09/28 01:50:31;;;;;;;9.10;6.20;;;17.20;99.90;;;;;;4957917;29;20051;-93
2023/09/28 01:52:58;;;;;;;9.45;6.10;;;17.20;99.90;;;;;;4957618;29;20050;-93
2023/09/28 01:55:24;;;;;;;9.43;6.30;;;17.20;99.90;;;;;;4945390;29;20036;-93
2023/09/28 01:57:51;;;;;;;8.82;6.00;;;17.20;99.90;;;;;;4957798;29;20039;-92
2023/09/28 02:00:20;;;;;;;8.57;5.70;;;17.10;99.90;;;;;;4957471;29;20078;-92
2023/09/28 02:02:50;;;;;;;8.82;5.90;;;17.20;99.90;;;;;;4957172;29;20051;-93
2023/09/28 02:05:18;;;;;;;8.90;6.20;;;17.20;99.90;;;;;;4959370;29;20106;-93
2023/09/28 02:07:45;;;;;;;6.78;5.05;;;17.10;99.90;;;;;;4957229;29;20039;-93
2023/09/28 02:10:12;;;;;;;10.15;6.00;;;17.10;99.90;;;;;;4953422;29;20481;-92
2023/09/28 02:12:44;;;;;;;9.52;5.75;;;17.10;99.90;;;;;;4964626;29;20150;-93
2023/09/28 02:15:14;;;;;;;18.77;5.38;;;17.10;99.90;;;;;;4956421;29;20051;-93
2023/09/28 02:17:42;;;;;;;9.00;5.43;;;17.10;99.90;;;;;;4945297;29;20054;-92
2023/09/28 02:20:10;;;;;;;10.45;5.07;;;17.10;99.90;;;;;;4953212;29;20038;-91
2023/09/28 02:22:43;;;;;;;7.25;5.30;;;17.20;99.90;;;;;;4962571;29;20047;-93
2023/09/28 02:25:17;;;;;;;7.90;5.22;;;17.10;99.90;;;;;;4957079;29;20517;-93
2023/09/28 02:27:48;;;;;;;8.02;5.22;;;17.10;99.90;;;;;;4956668;29;20054;-93
2023/09/28 02:30:19;;;;;;;10.32;5.70;;;17.10;99.90;;;;;;4956586;29;20042;-92
2023/09/28 02:32:47;;;;;;;10.43;4.93;;;17.10;99.90;;;;;;4956619;29;20156;-92
2023/09/28 02:35:14;;;;;;;7.80;5.18;;;17.00;99.90;;;;;;4949919;29;20107;-92
2023/09/28 02:37:43;;;;;;;8.02;5.40;;;17.00;99.90;;;;;;4966814;29;20051;-92
2023/09/28 02:40:11;;;;;;;7.03;5.20;;;17.00;99.90;;;;;;4950839;29;20047;-92
2023/09/28 02:42:39;;;;;;;9.00;5.75;;;16.90;99.90;;;;;;4972062;29;20098;-93
2023/09/28 02:45:11;;;;;;;12.63;5.97;;;17.00;99.90;;;;;;4960819;29;20499;-93
2023/09/28 02:47:46;;;;;;;7.68;5.40;;;16.90;99.90;;;;;;4957243;29;20054;-92
2023/09/28 02:50:16;;;;;;;8.77;5.65;;;16.80;99.90;;;;;;4966550;29;20043;-92
2023/09/28 02:52:47;;;;;;;9.10;5.13;;;16.70;99.90;;;;;;4960605;29;20042;-92
2023/09/28 02:55:14;;;;;;;7.53;4.85;;;16.70;99.90;;;;;;4960540;29;20042;-92
2023/09/28 02:57:41;;;;;;;8.15;5.07;;;16.70;99.90;;;;;;4960389;29;20097;-92
2023/09/28 03:00:19;;;;;;;9.13;5.07;;;16.70;99.90;;;;;;4947393;29;20131;-91
2023/09/28 03:02:46;;;;;;;9.20;5.47;;;16.60;99.90;;;;;;4952195;29;20511;-92
2023/09/28 03:05:16;;;;;;;8.20;5.50;;;16.60;99.90;;;;;;4958848;29;20044;-92
2023/09/28 03:07:43;;;;;;;10.48;5.47;;;16.50;99.90;;;;;;4960324;29;20511;-92
2023/09/28 03:10:11;;;;;;;9.73;6.03;;;16.50;99.90;;;;;;4947743;29;20044;-92
2023/09/28 03:12:39;;;;;;;8.93;5.63;;;16.60;99.90;;;;;;4960341;29;20432;-92
2023/09/28 03:15:12;;;;;;;9.57;5.82;;;16.50;99.90;;;;;;4955893;29;20094;-93
2023/09/28 03:17:39;;;;;;;7.75;5.15;;;16.50;99.90;;;;;;4947379;29;20040;-93
2023/09/28 03:20:14;;;;;;;12.80;5.88;;;16.50;99.90;;;;;;4974767;29;20040;-93
2023/09/28 03:22:45;;;;;;;7.75;5.38;;;16.40;99.90;;;;;;4945880;29;20051;-92
2023/09/28 03:25:17;;;;;;;8.15;5.60;;;16.40;99.90;;;;;;4969761;29;20492;-92
2023/09/28 03:27:49;;;;;;;8.75;5.82;;;16.70;99.90;;;;;;4952171;29;20511;-93
2023/09/28 03:30:18;;;;;;;8.13;5.43;;;16.30;99.90;;;;;;4960357;29;20031;-93
2023/09/28 03:32:47;;;;;;;9.25;5.45;;;16.30;99.90;;;;;;4959966;29;20552;-91
2023/09/28 03:35:15;;;;;;;7.57;5.20;;;16.30;99.90;;;;;;4975646;29;20515;-92
2023/09/28 03:37:42;;;;;;;9.25;5.50;;;16.30;99.90;;;;;;4947339;29;20102;-93
2023/09/28 03:40:10;;;;;;;9.70;5.47;;;16.30;99.90;;;;;;4959679;29;20135;-92
2023/09/28 03:42:42;;;;;;;7.45;5.10;;;16.30;99.90;;;;;;4957342;29;20495;-92
2023/09/28 03:45:11;;;;;;;8.38;5.03;;;16.30;99.90;;;;;;4956423;29;20047;-92
2023/09/28 03:47:39;;;;;;;14.00;5.00;;;16.30;99.90;;;;;;4943723;29;20070;-92
2023/09/28 03:50:09;;;;;;;10.10;5.13;;;16.30;99.90;;;;;;4959452;29;20126;-92
2023/09/28 03:52:37;;;;;;;8.32;5.05;;;16.30;99.90;;;;;;4958184;29;20039;-92
2023/09/28 03:55:05;;;;;;;10.15;4.95;;;16.30;99.90;;;;;;4972254;29;20128;-92
2023/09/28 03:57:32;;;;;;;9.25;5.32;;;16.30;99.90;;;;;;4971764;29;20063;-92
2023/09/28 03:59:58;;;;;;;9.30;5.65;;;16.30;99.90;;;;;;4940698;29;20492;-92
2023/09/28 04:02:28;;;;;;;13.48;5.35;;;16.30;99.90;;;;;;4958567;29;20041;-92
2023/09/28 04:04:58;;;;;;;10.20;5.47;;;16.30;99.90;;;;;;4959371;29;20646;-91
2023/09/28 04:07:25;;;;;;;9.23;5.20;;;16.30;99.90;;;;;;4974931;29;20048;-92
2023/09/28 04:09:51;;;;;;;8.95;5.38;;;16.20;99.90;;;;;;4946616;29;20043;-92
2023/09/28 04:12:19;;;;;;;7.78;5.63;;;16.20;99.90;;;;;;4945151;29;20565;-91
2023/09/28 04:14:45;;;;;;;12.05;5.90;;;16.20;99.90;;;;;;4955434;29;20047;-92
2023/09/28 04:17:12;;;;;;;7.88;5.32;;;16.20;99.90;;;;;;4958953;29;20043;-91
2023/09/28 04:19:39;;;;;;;7.85;5.13;;;16.20;99.90;;;;;;4968619;29;20036;-92
2023/09/28 04:22:05;;;;;;;8.23;5.50;;;16.10;99.90;;;;;;4961318;29;20066;-92
2023/09/28 04:24:32;;;;;;;8.02;5.82;;;16.10;99.90;;;;;;4963988;29;20419;-92
2023/09/28 04:26:59;;;;;;;9.43;6.30;;;16.10;99.90;;;;;;4971236;29;20048;-91
2023/09/28 04:29:26;;;;;;;8.90;5.82;;;16.00;99.90;;;;;;4962617;29;20550;-92
2023/09/28 04:31:54;;;;;;;8.75;6.00;;;16.00;99.90;;;;;;4958717;29;20058;-92
2023/09/28 04:34:21;;;;;;;11.25;6.47;;;15.90;99.90;;;;;;4958672;29;20082;-92
2023/09/28 04:36:50;;;;;;;10.45;5.65;;;16.00;99.90;;;;;;4952188;29;20040;-91
2023/09/28 04:39:17;;;;;;;9.95;5.90;;;15.90;99.90;;;;;;4940499;29;20087;-92
2023/09/28 04:41:44;;;;;;;11.45;6.38;;;15.90;99.90;;;;;;4950754;29;20035;-92
2023/09/28 04:44:11;;;;;;;10.30;5.95;;;15.80;99.90;;;;;;4956526;29;20103;-92
2023/09/28 04:46:37;;;;;;;9.90;5.82;;;15.80;99.90;;;;;;4958469;29;20051;-92
2023/09/28 04:49:04;;;;;;;9.85;6.25;;;15.80;99.90;;;;;;4956516;29;20042;-91
2023/09/28 04:51:31;;;;;;;9.68;5.63;;;15.70;99.90;;;;;;4960799;29;20043;-92
2023/09/28 04:54:02;;;;;;;9.27;5.75;;;15.70;99.90;;;;;;4954331;29;20035;-91
2023/09/28 04:56:31;;;;;;;10.68;6.50;;;15.70;99.90;;;;;;4948250;29;20040;-92
2023/09/28 04:59:02;;;;;;;12.10;6.00;;;15.70;99.90;;;;;;4955977;29;20710;-92
2023/09/28 05:01:29;;;;;;;10.20;6.15;;;15.70;99.90;;;;;;4958655;29;20514;-92
2023/09/28 05:03:55;;;;;;;8.07;5.38;;;15.60;99.90;;;;;;4952899;29;20128;-92
2023/09/28 05:06:22;;;;;;;9.65;6.05;;;15.60;99.90;;;;;;4966264;29;20046;-92
2023/09/28 05:08:52;;;;;;;9.85;6.10;;;15.60;99.90;;;;;;4967843;29;20126;-91
2023/09/28 05:11:18;;;;;;;8.77;5.53;;;15.50;99.90;;;;;;4951603;29;20035;-91
2023/09/28 05:13:45;;;;;;;9.23;5.82;;;15.50;99.90;;;;;;4954936;29;20506;-91
2023/09/28 05:16:12;;;;;;;8.75;5.90;;;15.50;99.90;;;;;;4967303;29;20039;-90
2023/09/28 05:18:39;;;;;;;9.70;5.70;;;15.40;99.90;;;;;;4950779;29;20459;-91
2023/09/28 05:21:05;;;;;;;10.25;5.72;;;15.50;99.90;;;;;;4963558;29;20122;-91
2023/09/28 05:23:32;;;;;;;9.52;5.80;;;15.50;99.90;;;;;;4944673;29;20047;-91
2023/09/28 05:26:00;;;;;;;10.02;5.78;;;15.50;99.90;;;;;;4947514;29;20048;-91
2023/09/28 05:28:27;;;;;;;9.55;5.68;;;15.50;99.90;;;;;;4955413;29;20039;-92
2023/09/28 05:30:54;;;;;;;9.48;6.18;;;15.50;99.90;;;;;;4957713;29;20547;-91
2023/09/28 05:33:21;;;;;;;9.80;6.07;;;15.40;99.90;;;;;;4945250;29;20579;-92
2023/09/28 05:35:48;;;;;;;9.13;6.10;;;15.50;99.90;;;;;;4957430;29;20107;-92
2023/09/28 05:38:14;;;;;;;10.82;5.85;;;15.40;99.90;;;;;;4957004;29;20397;-91
2023/09/28 05:40:41;;;;;;;10.27;5.80;;;15.40;99.90;;;;;;4957699;29;20482;-91
2023/09/28 05:43:08;;;;;;;12.63;6.28;;;15.40;99.90;;;;;;4960560;29;20079;-91
2023/09/28 05:45:34;;;;;;;10.52;5.80;;;15.40;99.90;;;;;;4954846;29;20055;-91
2023/09/28 05:48:01;;;;;;;9.23;5.85;;;15.20;99.90;;;;;;4969629;29;20051;-91
2023/09/28 05:50:28;;;;;;;10.32;5.65;;;15.30;99.90;;;;;;4966607;29;20043;-91
2023/09/28 05:52:56;;;;;;;8.13;5.43;;;15.30;99.90;;;;;;4954349;29;20075;-91
2023/09/28 05:55:25;;;;;;;8.77;5.55;;;15.30;99.90;;;;;;4969209;29;20090;-92
2023/09/28 05:57:53;;;;;;;11.93;5.75;;;15.30;99.90;;;;;;4947779;29;20051;-91
2023/09/28 06:00:20;;;;;;;8.95;5.85;;;15.30;99.90;;;;;;4957723;29;20057;-91
2023/09/28 06:02:48;;;;;;;10.90;5.72;;;15.30;99.90;;;;;;4954988;29;20171;-92
2023/09/28 06:05:15;;;;;;;9.23;5.50;;;15.30;99.90;;;;;;4957524;29;20129;-91
2023/09/28 06:07:42;;;;;;;10.18;5.68;;;15.40;99.90;;;;;;4955165;29;20148;-91
2023/09/28 06:10:09;;;;;;;12.60;5.63;;;15.40;99.90;;;;;;4956783;29;20043;-91
2023/09/28 06:12:36;;;;;;;10.55;5.80;;;15.40;99.90;;;;;;4954863;29;20139;-91
2023/09/28 06:15:04;;;;;;;10.13;5.50;;;15.40;99.90;;;;;;4948674;29;20130;-92
2023/09/28 06:17:30;;;;;;;9.48;5.63;;;15.50;99.90;;;;;;4971516;29;20206;-92
2023/09/28 06:19:57;;;;;;;10.68;5.63;;;15.50;99.90;;;;;;4948274;29;20530;-92
2023/09/28 06:22:24;;;;;;;9.73;5.90;;;15.60;99.90;;;;;;4965647;29;20130;-91
2023/09/28 06:24:51;;;;;;;9.45;5.38;;;15.70;99.90;;;;;;4979785;29;20500;-92
2023/09/28 06:27:18;;;;;;;8.88;4.80;;;15.70;99.90;;;;;;4965553;29;20135;-91
2023/09/28 06:29:44;;;;;;;11.05;4.93;;;15.80;99.90;;;;;;4966442;29;20043;-91
2023/09/28 06:32:11;;;;;;;12.73;5.10;;;15.80;99.90;;;;;;4956897;29;20075;-91
2023/09/28 06:34:38;;;;;;;10.95;5.00;;;15.90;99.90;;;;;;4956663;29;20515;-91
2023/09/28 06:37:07;;;;;;;10.95;4.68;;;15.90;99.90;;;;;;4956293;29;20039;-91
2023/09/28 06:39:33;;;;;;;10.63;4.85;;;16.00;99.90;;;;;;4956708;29;20035;-91
2023/09/28 06:42:00;;;;;;;13.25;5.32;;;15.90;99.90;;;;;;4956313;29;20246;-92
2023/09/28 06:44:27;;;;;;;9.45;4.50;;;16.00;99.90;;;;;;4947113;29;20126;-91
2023/09/28 06:46:53;;;;;;;10.43;4.72;;;16.00;99.90;;;;;;4942219;29;20044;-91
2023/09/28 06:49:20;;;;;;;9.77;5.30;;;16.00;99.90;;;;;;4954611;29;20749;-90
2023/09/28 06:51:48;;;;;;;9.60;4.97;;;16.00;99.90;;;;;;4957964;29;20040;-83
2023/09/28 06:54:16;;;;;;;11.95;5.22;;;16.00;99.90;;;;;;4967319;29;20051;-84
2023/09/28 06:56:43;;;;;;;9.40;4.88;;;16.00;99.90;;;;;;4948916;29;20035;-87
2023/09/28 06:59:09;;;;;;;11.63;5.65;;;16.10;99.90;;;;;;4965331;29;20039;-87
2023/09/28 07:01:36;;;;;;;10.13;5.30;;;16.10;99.90;;;;;;4965282;29;20408;-87
2023/09/28 07:04:03;;;;;;;9.15;5.10;;;16.20;99.90;;;;;;4966359;29;20043;-87
2023/09/28 07:06:29;;;;;;;10.95;5.28;;;16.20;99.90;;;;;;4965932;29;20042;-87
2023/09/28 07:08:57;;;;;;;9.35;5.13;;;16.30;99.90;;;;;;4944581;29;20469;-87
2023/09/28 07:11:24;;;;;;;13.00;5.38;;;16.30;99.90;;;;;;4938136;29;20527;-87
2023/09/28 07:13:50;;;;;;;11.40;5.13;;;16.40;99.90;;;;;;4942033;29;20047;-87
2023/09/28 07:16:17;;;;;;;11.38;5.10;;;16.40;99.90;;;;;;4955733;29;20040;-87
2023/09/28 07:18:44;;;;;;;10.93;5.20;;;16.40;99.90;;;;;;4971875;29;20039;-87
2023/09/28 07:21:10;;;;;;;14.02;5.53;;;16.50;99.90;;;;;;4955630;29;20046;-87
2023/09/28 07:23:39;;;;;;;8.88;4.38;;;16.50;99.90;;;;;;4959262;29;20039;-87
2023/09/28 07:26:16;;;;;;;13.57;4.80;;;16.60;99.90;;;;;;4946745;29;20055;-87
2023/09/28 07:28:46;;;;;;;10.00;4.90;;;16.60;99.90;;;;;;4943317;29;20126;-87
2023/09/28 07:31:13;;;;;;;10.63;3.80;;;16.50;99.90;;;;;;4953627;29;20071;-87
2023/09/28 07:33:40;;;;;;;12.00;4.30;;;16.80;99.90;;;;;;4955211;29;20070;-89
2023/09/28 07:36:07;;;;;;;11.43;3.95;;;16.80;99.90;;;;;;4952878;29;20051;-87
2023/09/28 07:38:33;;;;;;;15.80;3.92;;;16.90;99.90;;;;;;4957614;29;20045;-87
2023/09/28 07:41:01;;;;;;;17.45;4.60;;;17.00;99.90;;;;;;4957289;29;20047;-89
2023/09/28 07:43:29;;;;;;;12.85;3.78;;;17.00;99.90;;;;;;4963760;29;20051;-87
2023/09/28 07:45:56;;;;;;;12.55;3.38;;;17.10;99.90;;;;;;4970129;29;20090;-87
2023/09/28 07:48:23;;;;;;;13.45;3.60;;;17.20;99.90;;;;;;4955375;29;20035;-88
2023/09/28 07:50:50;;;;;;;15.95;3.40;;;17.30;99.90;;;;;;4953588;29;20067;-85
2023/09/28 07:53:18;;;;;;;13.70;3.50;;;17.30;99.90;;;;;;4945059;29;20036;-88
2023/09/28 07:55:44;;;;;;;13.48;3.33;;;17.00;99.90;;;;;;4946643;29;20035;-89
2023/09/28 07:58:11;;;;;;;18.70;3.20;;;17.40;99.90;;;;;;4958068;29;20200;-88
2023/09/28 08:00:37;;;;;;;13.65;2.95;;;17.40;99.90;;;;;;4955181;29;20047;-87
2023/09/28 08:03:05;;;;;;;13.05;2.97;;;17.40;99.90;;;;;;4955008;29;20055;-87
2023/09/28 08:05:31;;;;;;;20.33;3.58;;;17.60;99.90;;;;;;4971244;29;20055;-87
2023/09/28 08:07:58;;;;;;;15.75;3.30;;;17.50;99.90;;;;;;4967351;29;20050;-87
2023/09/28 08:10:25;;;;;;;17.05;3.47;;;17.60;99.90;;;;;;4939567;29;20134;-88
2023/09/28 08:12:53;;;;;;;15.00;2.97;;;17.60;99.90;;;;;;4952040;29;20576;-88
2023/09/28 08:15:20;;;;;;;14.63;2.90;;;17.70;99.90;;;;;;4958770;29;20040;-88
2023/09/28 08:17:47;;;;;;;15.07;3.53;;;17.80;99.90;;;;;;4943645;29;20055;-87
2023/09/28 08:20:15;;;;;;;16.67;3.83;;;17.80;99.90;;;;;;4950959;29;20044;-88
2023/09/28 08:22:42;;;;;;;15.68;2.60;;;17.90;99.90;;;;;;4957788;29;20039;-88
2023/09/28 08:25:09;;;;;;;15.35;2.88;;;17.90;99.90;;;;;;4957259;29;20043;-87
2023/09/28 08:27:35;;;;;;;18.80;3.50;;;18.00;99.90;;;;;;4939327;29;20052;-89
2023/09/28 08:30:03;;;;;;;15.98;2.85;;;18.00;99.90;;;;;;4965711;29;20131;-88
2023/09/28 08:32:31;;;;;;;21.20;3.50;;;18.10;99.90;;;;;;4957941;29;20042;-89
2023/09/28 08:34:58;;;;;;;16.67;3.08;;;18.10;99.90;;;;;;4956542;29;20130;-88
2023/09/28 08:37:25;;;;;;;18.40;3.50;;;18.10;99.90;;;;;;4953750;29;20128;-88
2023/09/28 08:39:52;;;;;;;16.10;3.00;;;18.10;99.90;;;;;;4952594;29;20798;-88
2023/09/28 08:42:25;;;;;;;15.10;3.25;;;18.20;99.90;;;;;;4938586;29;20078;-89
2023/09/28 08:44:59;;;;;;;20.00;3.13;;;18.30;99.90;;;;;;4957491;29;20481;-89
2023/09/28 08:47:27;;;;;;;19.67;3.28;;;18.30;99.90;;;;;;4951072;29;20048;-89
2023/09/28 08:49:56;;;;;;;18.08;3.15;;;18.40;99.90;;;;;;4942154;29;20090;-89
2023/09/28 08:52:24;;;;;;;19.48;2.95;;;18.40;99.90;;;;;;4955292;29;20086;-89
2023/09/28 08:54:52;;;;;;;18.67;3.40;;;18.40;99.90;;;;;;4958204;29;20066;-88
2023/09/28 08:57:19;;;;;;;19.20;3.70;;;18.50;99.90;;;;;;4957885;29;20484;-88
2023/09/28 08:59:46;;;;;;;17.63;3.10;;;18.50;99.90;;;;;;4958214;29;20050;-88
2023/09/28 09:02:14;;;;;;;18.75;3.38;;;18.50;99.90;;;;;;4954419;29;20040;-89
2023/09/28 09:04:42;;;;;;;15.75;3.22;;;18.70;99.90;;;;;;4954564;29;20055;-88
2023/09/28 09:07:09;;;;;;;14.30;2.83;;;18.70;99.90;;;;;;4945377;29;20135;-88
2023/09/28 09:09:40;;;;;;;16.33;3.65;;;18.90;99.90;;;;;;4944933;29;20048;-89
2023/09/28 09:12:10;;;;;;;16.90;2.90;;;19.00;99.90;;;;;;4962037;29;20116;-88
2023/09/28 09:14:37;;;;;;;17.08;3.13;;;19.00;99.90;;;;;;4944370;29;20042;-91
2023/09/28 09:17:06;;;;;;;13.55;3.22;;;19.10;99.90;;;;;;4957819;29;20043;-88
2023/09/28 09:19:33;;;;;;;17.08;3.97;;;19.20;99.90;;;;;;4953921;29;20048;-89
2023/09/28 09:22:00;;;;;;;15.07;3.53;;;19.20;99.90;;;;;;4946192;29;20047;-90
2023/09/28 09:24:26;;;;;;;17.60;3.10;;;19.20;99.90;;;;;;4969278;29;20108;-90
2023/09/28 09:26:53;;;;;;;16.33;3.13;;;19.10;99.90;;;;;;4967280;29;20382;-91
2023/09/28 09:29:20;;;;;;;16.75;3.05;;;19.10;99.90;;;;;;4938274;29;20043;-90
2023/09/28 09:31:47;;;;;;;17.17;3.17;;;19.10;99.90;;;;;;4940440;29;20093;-89
2023/09/28 09:34:17;;;;;;;15.18;2.70;;;19.00;99.90;;;;;;4964111;29;20060;-87
2023/09/28 09:37:04;;;;;;;19.33;3.13;;;19.00;99.90;;;;;;4952607;29;20576;-89
2023/09/28 09:39:32;;;;;;;13.45;3.13;;;19.00;99.90;;;;;;4955317;29;20148;-90
2023/09/28 09:41:59;;;;;;;26.67;5.55;;;19.00;99.90;;;;;;4944467;29;20123;-90
2023/09/28 09:44:27;;;;;;;19.58;3.85;;;19.10;99.90;;;;;;4962519;29;20121;-90
2023/09/28 09:46:55;;;;;;;16.00;3.10;;;19.00;99.90;;;;;;4953777;29;20059;-89
2023/09/28 09:49:24;;;;;;;15.88;2.97;;;19.00;99.90;;;;;;4953274;29;20040;-90
2023/09/28 09:51:51;;;;;;;19.02;3.47;;;19.10;99.90;;;;;;4954672;29;20563;-89
2023/09/28 09:54:20;;;;;;;16.67;3.03;;;19.00;99.90;;;;;;4954105;29;20071;-91
2023/09/28 09:56:51;;;;;;;17.50;3.55;;;19.30;99.90;;;;;;4951885;29;20130;-89
2023/09/28 09:59:20;;;;;;;17.67;3.30;;;19.30;99.90;;;;;;4954167;29;20049;-90
2023/09/28 10:01:48;;;;;;;24.02;3.60;;;19.00;99.90;;;;;;4939360;29;20042;-90
2023/09/28 10:04:16;;;;;;;17.63;3.85;;;19.00;99.90;;;;;;4951563;29;20047;-90
2023/09/28 10:06:48;;;;;;;15.40;2.67;;;19.00;99.90;;;;;;4950322;29;20044;-89
2023/09/28 10:09:21;;;;;;;14.93;2.83;;;19.10;99.90;;;;;;4953302;29;20452;-88
2023/09/28 10:11:52;;;;;;;20.30;3.20;;;19.10;99.90;;;;;;4959206;29;20040;-91
2023/09/28 10:14:21;;;;;;;15.00;2.65;;;19.10;99.90;;;;;;4937702;29;20039;-87
2023/09/28 10:16:51;;;;;;;15.68;3.40;;;19.10;99.90;;;;;;4983494;29;20043;-88
2023/09/28 10:19:22;;;;;;;14.73;3.00;;;19.20;99.90;;;;;;4970796;29;20070;-89
2023/09/28 10:21:51;;;;;;;17.95;3.03;;;19.20;99.90;;;;;;4954221;29;21631;-90
2023/09/28 10:24:20;;;;;;;15.07;2.83;;;19.20;99.90;;;;;;4953699;29;20502;-90
2023/09/28 10:26:54;;;;;;;24.63;3.92;;;19.30;99.90;;;;;;4938614;29;20032;-92
2023/09/28 10:29:32;;;;;;;27.13;4.17;;;19.30;99.90;;;;;;4964279;29;20159;-87
2023/09/28 10:31:59;;;;;;;15.43;3.30;;;19.50;99.90;;;;;;4955134;29;20275;-86
2023/09/28 10:34:30;;;;;;;14.50;3.45;;;19.60;99.90;;;;;;4941725;29;20066;-86
2023/09/28 10:37:10;;;;;;;15.65;2.78;;;19.60;99.90;;;;;;4966810;29;20094;-85
2023/09/28 10:39:38;;;;;;;13.77;2.80;;;19.60;99.90;;;;;;4952703;29;20031;-86
2023/09/28 10:42:10;;;;;;;14.93;3.00;;;19.60;99.90;;;;;;4967012;28;20039;-86
2023/09/28 10:44:46;;;;;;;17.05;2.78;;;19.50;99.90;;;;;;4958134;29;20051;-85
2023/09/28 10:47:13;;;;;;;20.77;3.63;;;19.50;99.90;;;;;;4943375;29;20066;-86
2023/09/28 10:49:40;;;;;;;22.83;3.30;;;19.50;99.90;;;;;;4946163;29;20039;-86
2023/09/28 10:52:11;;;;;;;14.60;2.95;;;19.40;99.90;;;;;;4956796;29;20487;-86
2023/09/28 10:54:38;;;;;;;16.35;3.42;;;19.40;99.90;;;;;;4936514;29;20042;-85
2023/09/28 10:57:05;;;;;;;14.25;3.22;;;19.30;99.90;;;;;;4954433;29;20449;-85
2023/09/28 10:59:33;;;;;;;14.60;3.13;;;19.30;99.90;;;;;;4948432;29;20036;-85
2023/09/28 11:02:01;;;;;;;14.63;3.00;;;19.40;99.90;;;;;;4962102;29;20131;-86
2023/09/28 11:04:29;;;;;;;19.33;3.33;;;19.40;99.90;;;;;;4941298;29;20556;-86
2023/09/28 11:06:55;;;;;;;15.77;2.90;;;19.30;99.90;;;;;;4960657;29;20039;-85
2023/09/28 11:09:24;;;;;;;15.43;3.22;;;19.30;99.90;;;;;;4955643;29;20751;-86
2023/09/28 11:11:51;;;;;;;12.60;3.08;;;19.20;99.90;;;;;;4954606;29;20074;-86
2023/09/28 11:14:20;;;;;;;16.67;2.95;;;19.30;99.90;;;;;;4964923;29;20490;-86
2023/09/28 11:16:49;;;;;;;13.88;2.95;;;19.40;99.90;;;;;;4940220;29;20198;-87
2023/09/28 11:19:15;;;;;;;14.25;3.10;;;19.50;99.90;;;;;;4961498;29;20071;-87
2023/09/28 11:21:42;;;;;;;14.43;2.72;;;19.50;99.90;;;;;;4960725;29;20070;-87
2023/09/28 11:24:11;;;;;;;15.25;3.00;;;19.50;99.90;;;;;;4966705;29;20047;-87
2023/09/28 11:26:42;;;;;;;13.85;3.03;;;19.60;99.90;;;;;;4955356;29;20393;-86
2023/09/28 11:29:09;;;;;;;15.05;3.17;;;19.60;99.90;;;;;;4955627;29;20461;-87
2023/09/28 11:31:37;;;;;;;15.07;2.95;;;19.70;99.90;;;;;;4968395;29;20038;-87
2023/09/28 11:34:03;;;;;;;14.73;2.65;;;19.70;99.90;;;;;;4947014;29;20058;-87
2023/09/28 11:36:31;;;;;;;11.93;3.05;;;19.70;99.90;;;;;;4956661;29;20039;-87
2023/09/28 11:38:58;;;;;;;12.27;3.28;;;19.70;99.90;;;;;;4963600;29;20747;-87
2023/09/28 11:41:24;;;;;;;14.85;3.85;;;19.80;99.90;;;;;;4953799;29;20046;-87
2023/09/28 11:43:53;;;;;;;11.68;2.58;;;19.90;99.90;;;;;;4955603;29;20051;-87
2023/09/28 11:46:27;;;;;;;15.20;2.90;;;19.90;99.90;;;;;;4952479;29;20135;-87
2023/09/28 11:49:04;;;;;;;18.02;2.78;;;19.90;99.90;;;;;;4983784;29;20079;-87
2023/09/28 11:51:32;;;;;;;14.55;2.90;;;19.90;99.90;;;;;;4964839;29;20062;-86
2023/09/28 11:54:00;;;;;;;15.68;3.13;;;19.90;99.90;;;;;;4955417;29;20062;-87
2023/09/28 11:56:27;;;;;;;13.55;3.40;;;19.90;99.90;;;;;;4965091;29;20043;-87
2023/09/28 11:58:55;;;;;;;15.65;3.20;;;19.80;99.90;;;;;;4955670;29;20091;-87
2023/09/28 12:01:22;;;;;;;14.85;3.50;;;19.90;99.90;;;;;;4957894;29;20064;-86
2023/09/28 12:03:49;;;;;;;14.52;3.08;;;19.50;99.90;;;;;;4974526;29;20128;-87
2023/09/28 12:06:17;;;;;;;17.70;3.00;;;19.90;99.90;;;;;;4954845;29;20043;-87
2023/09/28 12:08:45;;;;;;;13.48;2.95;;;19.90;99.90;;;;;;4965477;29;20558;-86
2023/09/28 12:11:12;;;;;;;11.80;3.00;;;19.80;99.90;;;;;;4954667;29;20409;-87
2023/09/28 12:13:39;;;;;;;23.08;3.78;;;19.90;99.90;;;;;;4961848;29;20044;-87
2023/09/28 12:16:06;;;;;;;20.88;2.72;;;19.80;99.90;;;;;;4964475;29;20423;-87
2023/09/28 12:18:33;;;;;;;13.70;2.72;;;19.80;99.90;;;;;;4958282;29;20130;-87
2023/09/28 12:21:00;;;;;;;16.15;3.20;;;19.80;99.90;;;;;;4968780;29;20155;-87
2023/09/28 12:23:27;;;;;;;14.38;3.03;;;19.80;99.90;;;;;;4947315;29;20080;-87
2023/09/28 12:25:54;;;;;;;12.52;2.72;;;19.90;99.90;;;;;;4957684;29;20074;-87
2023/09/28 12:28:24;;;;;;;12.77;2.85;;;19.90;99.90;;;;;;4954849;29;20134;-86
2023/09/28 12:30:51;;;;;;;16.85;3.10;;;19.90;99.90;;;;;;4949315;29;20052;-87
2023/09/28 12:33:18;;;;;;;17.85;3.50;;;19.80;99.90;;;;;;4973366;29;20936;-86
2023/09/28 12:35:46;;;;;;;15.18;2.72;;;19.90;99.90;;;;;;4958088;29;20043;-82
2023/09/28 12:38:13;;;;;;;15.85;3.17;;;19.90;99.90;;;;;;4944301;29;20047;-86
2023/09/28 12:40:40;;;;;;;18.88;3.50;;;19.90;99.90;;;;;;4957448;29;20047;-86
2023/09/28 12:43:09;;;;;;;18.23;2.92;;;19.90;99.90;;;;;;4957359;29;20488;-86
2023/09/28 12:45:36;;;;;;;16.25;2.58;;;19.90;99.90;;;;;;4973742;29;20058;-86
2023/09/28 12:48:04;;;;;;;14.98;3.00;;;19.90;99.90;;;;;;4944856;29;20044;-86